sensor_id;sensor_type;location;lat;lon;timestamp;P1;durP1;ratioP1;P2;durP2;ratioP2
24857;SDS011;12935;50.782;6.074;2024-03-07T00:01:22;108.03;;;90.30;;
24857;SDS011;12935;50.782;6.074;2024-03-07T00:03:47;107.80;;;90.93;;
24857;SDS011;12935;50.782;6.074;2024-03-07T00:06:12;100.43;;;88.20;;
24857;SDS011;12935;50.782;6.074;2024-03-07T00:08:38;104.17;;;93.37;;
24857;SDS011;12935;50.782;6.074;2024-03-07T00:11:03;101.00;;;88.80;;
24857;SDS011;12935;50.782;6.074;2024-03-07T00:13:28;101.27;;;87.30;;
24857;SDS011;12935;50.782;6.074;2024-03-07T00:15:53;109.10;;;89.63;;
24857;SDS011;12935;50.782;6.074;2024-03-07T00:18:19;95.87;;;86.17;;
24857;SDS011;12935;50.782;6.074;2024-03-07T00:20:44;95.20;;;84.77;;
24857;SDS011;12935;50.782;6.074;2024-03-07T00:23:09;97.13;;;86.53;;
24857;SDS011;12935;50.782;6.074;2024-03-07T00:25:35;97.70;;;87.07;;
24857;SDS011;12935;50.782;6.074;2024-03-07T00:28:00;100.00;;;88.80;;
24857;SDS011;12935;50.782;6.074;2024-03-07T00:30:28;101.03;;;88.45;;
24857;SDS011;12935;50.782;6.074;2024-03-07T00:32:54;101.28;;;90.22;;
24857;SDS011;12935;50.782;6.074;2024-03-07T00:35:21;96.05;;;86.05;;
24857;SDS011;12935;50.782;6.074;2024-03-07T00:37:46;99.90;;;89.10;;
24857;SDS011;12935;50.782;6.074;2024-03-07T00:40:12;118.43;;;92.27;;
24857;SDS011;12935;50.782;6.074;2024-03-07T00:42:38;95.00;;;84.60;;
24857;SDS011;12935;50.782;6.074;2024-03-07T00:45:03;107.23;;;89.33;;
24857;SDS011;12935;50.782;6.074;2024-03-07T00:47:29;104.75;;;88.10;;
24857;SDS011;12935;50.782;6.074;2024-03-07T00:49:57;124.32;;;95.93;;
24857;SDS011;12935;50.782;6.074;2024-03-07T00:52:22;95.33;;;85.63;;
24857;SDS011;12935;50.782;6.074;2024-03-07T00:54:47;93.93;;;84.20;;
24857;SDS011;12935;50.782;6.074;2024-03-07T00:57:13;105.10;;;91.07;;
24857;SDS011;12935;50.782;6.074;2024-03-07T00:59:39;95.75;;;85.45;;
24857;SDS011;12935;50.782;6.074;2024-03-07T01:02:05;101.40;;;88.77;;
24857;SDS011;12935;50.782;6.074;2024-03-07T01:04:30;107.40;;;92.37;;
24857;SDS011;12935;50.782;6.074;2024-03-07T01:06:58;103.25;;;86.88;;
24857;SDS011;12935;50.782;6.074;2024-03-07T01:09:27;113.33;;;90.37;;
24857;SDS011;12935;50.782;6.074;2024-03-07T01:11:53;104.10;;;87.78;;
24857;SDS011;12935;50.782;6.074;2024-03-07T01:14:20;103.10;;;88.15;;
24857;SDS011;12935;50.782;6.074;2024-03-07T01:16:45;105.20;;;87.73;;
24857;SDS011;12935;50.782;6.074;2024-03-07T01:19:12;127.32;;;93.88;;
24857;SDS011;12935;50.782;6.074;2024-03-07T01:21:38;108.20;;;88.23;;
24857;SDS011;12935;50.782;6.074;2024-03-07T01:24:03;99.97;;;88.03;;
24857;SDS011;12935;50.782;6.074;2024-03-07T01:26:29;98.77;;;87.87;;
24857;SDS011;12935;50.782;6.074;2024-03-07T01:28:55;100.43;;;87.23;;
24857;SDS011;12935;50.782;6.074;2024-03-07T01:31:22;98.93;;;88.13;;
24857;SDS011;12935;50.782;6.074;2024-03-07T01:33:47;96.83;;;85.40;;
24857;SDS011;12935;50.782;6.074;2024-03-07T01:36:13;111.40;;;91.00;;
24857;SDS011;12935;50.782;6.074;2024-03-07T01:38:38;104.60;;;91.17;;
24857;SDS011;12935;50.782;6.074;2024-03-07T01:41:03;100.50;;;85.50;;
24857;SDS011;12935;50.782;6.074;2024-03-07T01:43:28;94.47;;;84.17;;
24857;SDS011;12935;50.782;6.074;2024-03-07T01:45:56;99.45;;;88.15;;
24857;SDS011;12935;50.782;6.074;2024-03-07T01:48:27;94.82;;;84.93;;
24857;SDS011;12935;50.782;6.074;2024-03-07T01:50:54;93.47;;;83.60;;
24857;SDS011;12935;50.782;6.074;2024-03-07T01:53:20;111.10;;;86.57;;
24857;SDS011;12935;50.782;6.074;2024-03-07T01:55:47;104.90;;;91.10;;
24857;SDS011;12935;50.782;6.074;2024-03-07T01:58:13;100.63;;;89.70;;
24857;SDS011;12935;50.782;6.074;2024-03-07T02:00:42;97.18;;;86.43;;
24857;SDS011;12935;50.782;6.074;2024-03-07T02:03:08;97.70;;;86.90;;
24857;SDS011;12935;50.782;6.074;2024-03-07T02:05:34;95.10;;;85.27;;
24857;SDS011;12935;50.782;6.074;2024-03-07T02:07:59;114.63;;;90.40;;
24857;SDS011;12935;50.782;6.074;2024-03-07T02:10:26;115.60;;;90.78;;
24857;SDS011;12935;50.782;6.074;2024-03-07T02:12:52;96.97;;;86.43;;
24857;SDS011;12935;50.782;6.074;2024-03-07T02:15:17;96.83;;;86.00;;
24857;SDS011;12935;50.782;6.074;2024-03-07T02:17:42;95.53;;;85.17;;
24857;SDS011;12935;50.782;6.074;2024-03-07T02:20:08;140.03;;;96.37;;
24857;SDS011;12935;50.782;6.074;2024-03-07T02:22:35;123.40;;;91.15;;
24857;SDS011;12935;50.782;6.074;2024-03-07T02:25:01;111.30;;;91.87;;
24857;SDS011;12935;50.782;6.074;2024-03-07T02:27:26;104.17;;;88.20;;
24857;SDS011;12935;50.782;6.074;2024-03-07T02:29:51;94.00;;;83.80;;
24857;SDS011;12935;50.782;6.074;2024-03-07T02:32:17;99.37;;;88.23;;
24857;SDS011;12935;50.782;6.074;2024-03-07T02:34:42;107.70;;;88.07;;
24857;SDS011;12935;50.782;6.074;2024-03-07T02:37:08;103.83;;;87.83;;
24857;SDS011;12935;50.782;6.074;2024-03-07T02:39:34;115.05;;;92.32;;
24857;SDS011;12935;50.782;6.074;2024-03-07T02:42:01;109.75;;;91.13;;
24857;SDS011;12935;50.782;6.074;2024-03-07T02:44:26;111.23;;;89.83;;
24857;SDS011;12935;50.782;6.074;2024-03-07T02:46:51;95.97;;;85.13;;
24857;SDS011;12935;50.782;6.074;2024-03-07T02:49:17;136.27;;;94.47;;
24857;SDS011;12935;50.782;6.074;2024-03-07T02:51:42;94.73;;;84.67;;
24857;SDS011;12935;50.782;6.074;2024-03-07T02:54:07;116.17;;;91.03;;
24857;SDS011;12935;50.782;6.074;2024-03-07T02:56:33;100.93;;;89.63;;
24857;SDS011;12935;50.782;6.074;2024-03-07T02:59:00;109.50;;;89.22;;
24857;SDS011;12935;50.782;6.074;2024-03-07T03:01:25;116.67;;;90.27;;
24857;SDS011;12935;50.782;6.074;2024-03-07T03:03:50;109.60;;;88.77;;
24857;SDS011;12935;50.782;6.074;2024-03-07T03:06:16;100.33;;;89.47;;
24857;SDS011;12935;50.782;6.074;2024-03-07T03:08:41;113.87;;;91.80;;
24857;SDS011;12935;50.782;6.074;2024-03-07T03:11:06;104.27;;;89.23;;
24857;SDS011;12935;50.782;6.074;2024-03-07T03:13:34;96.85;;;86.35;;
24857;SDS011;12935;50.782;6.074;2024-03-07T03:15:59;101.63;;;87.80;;
24857;SDS011;12935;50.782;6.074;2024-03-07T03:18:25;98.20;;;87.63;;
24857;SDS011;12935;50.782;6.074;2024-03-07T03:20:50;96.10;;;85.77;;
24857;SDS011;12935;50.782;6.074;2024-03-07T03:23:17;105.13;;;86.93;;
24857;SDS011;12935;50.782;6.074;2024-03-07T03:25:43;100.43;;;88.18;;
24857;SDS011;12935;50.782;6.074;2024-03-07T03:28:09;131.87;;;94.77;;
24857;SDS011;12935;50.782;6.074;2024-03-07T03:30:38;99.82;;;88.75;;
24857;SDS011;12935;50.782;6.074;2024-03-07T03:33:05;100.35;;;89.80;;
24857;SDS011;12935;50.782;6.074;2024-03-07T03:35:31;95.68;;;85.57;;
24857;SDS011;12935;50.782;6.074;2024-03-07T03:37:58;92.57;;;82.82;;
24857;SDS011;12935;50.782;6.074;2024-03-07T03:40:24;103.17;;;86.00;;
24857;SDS011;12935;50.782;6.074;2024-03-07T03:42:49;99.23;;;87.67;;
24857;SDS011;12935;50.782;6.074;2024-03-07T03:45:14;132.10;;;89.63;;
24857;SDS011;12935;50.782;6.074;2024-03-07T03:47:41;95.87;;;85.67;;
24857;SDS011;12935;50.782;6.074;2024-03-07T03:50:07;101.60;;;88.63;;
24857;SDS011;12935;50.782;6.074;2024-03-07T03:52:34;95.85;;;85.90;;
24857;SDS011;12935;50.782;6.074;2024-03-07T03:55:05;137.73;;;96.90;;
24857;SDS011;12935;50.782;6.074;2024-03-07T03:57:31;118.38;;;93.97;;
24857;SDS011;12935;50.782;6.074;2024-03-07T03:59:58;108.93;;;92.85;;
24857;SDS011;12935;50.782;6.074;2024-03-07T04:02:24;94.23;;;84.53;;
24857;SDS011;12935;50.782;6.074;2024-03-07T04:04:50;111.90;;;92.50;;
24857;SDS011;12935;50.782;6.074;2024-03-07T04:07:16;96.70;;;86.13;;
24857;SDS011;12935;50.782;6.074;2024-03-07T04:09:42;115.57;;;92.22;;
24857;SDS011;12935;50.782;6.074;2024-03-07T04:12:09;107.53;;;91.50;;
24857;SDS011;12935;50.782;6.074;2024-03-07T04:14:36;102.65;;;87.90;;
24857;SDS011;12935;50.782;6.074;2024-03-07T04:17:04;94.13;;;84.20;;
24857;SDS011;12935;50.782;6.074;2024-03-07T04:19:31;103.53;;;87.85;;
24857;SDS011;12935;50.782;6.074;2024-03-07T04:21:58;95.18;;;85.13;;
24857;SDS011;12935;50.782;6.074;2024-03-07T04:24:23;97.50;;;86.97;;
24857;SDS011;12935;50.782;6.074;2024-03-07T04:26:48;103.30;;;88.77;;
24857;SDS011;12935;50.782;6.074;2024-03-07T04:29:13;104.03;;;87.87;;
24857;SDS011;12935;50.782;6.074;2024-03-07T04:31:39;97.73;;;87.43;;
24857;SDS011;12935;50.782;6.074;2024-03-07T04:34:04;94.77;;;84.80;;
24857;SDS011;12935;50.782;6.074;2024-03-07T04:36:29;97.87;;;87.40;;
24857;SDS011;12935;50.782;6.074;2024-03-07T04:38:55;95.23;;;85.03;;
24857;SDS011;12935;50.782;6.074;2024-03-07T04:41:20;98.07;;;87.63;;
24857;SDS011;12935;50.782;6.074;2024-03-07T04:43:45;101.53;;;88.20;;
24857;SDS011;12935;50.782;6.074;2024-03-07T04:46:11;98.80;;;86.97;;
24857;SDS011;12935;50.782;6.074;2024-03-07T04:48:36;95.27;;;85.07;;
24857;SDS011;12935;50.782;6.074;2024-03-07T04:51:02;105.80;;;89.10;;
24857;SDS011;12935;50.782;6.074;2024-03-07T04:53:28;99.10;;;87.67;;
24857;SDS011;12935;50.782;6.074;2024-03-07T04:55:53;100.50;;;89.67;;
24857;SDS011;12935;50.782;6.074;2024-03-07T04:58:19;99.47;;;88.17;;
24857;SDS011;12935;50.782;6.074;2024-03-07T05:00:44;93.47;;;83.80;;
24857;SDS011;12935;50.782;6.074;2024-03-07T05:03:09;101.47;;;90.37;;
24857;SDS011;12935;50.782;6.074;2024-03-07T05:05:36;99.15;;;88.30;;
24857;SDS011;12935;50.782;6.074;2024-03-07T05:08:01;96.33;;;86.50;;
24857;SDS011;12935;50.782;6.074;2024-03-07T05:10:26;99.10;;;88.40;;
24857;SDS011;12935;50.782;6.074;2024-03-07T05:12:54;97.30;;;86.68;;
24857;SDS011;12935;50.782;6.074;2024-03-07T05:15:20;97.43;;;84.40;;
24857;SDS011;12935;50.782;6.074;2024-03-07T05:17:45;95.00;;;84.83;;
24857;SDS011;12935;50.782;6.074;2024-03-07T05:20:11;95.43;;;85.00;;
24857;SDS011;12935;50.782;6.074;2024-03-07T05:22:37;105.53;;;89.90;;
24857;SDS011;12935;50.782;6.074;2024-03-07T05:25:05;108.07;;;90.22;;
24857;SDS011;12935;50.782;6.074;2024-03-07T05:27:31;96.85;;;85.75;;
24857;SDS011;12935;50.782;6.074;2024-03-07T05:29:56;100.40;;;85.43;;
24857;SDS011;12935;50.782;6.074;2024-03-07T05:34:49;100.05;;;87.65;;
24857;SDS011;12935;50.782;6.074;2024-03-07T05:37:15;112.97;;;92.53;;
24857;SDS011;12935;50.782;6.074;2024-03-07T05:39:40;109.93;;;88.70;;
24857;SDS011;12935;50.782;6.074;2024-03-07T05:42:05;98.80;;;87.17;;
24857;SDS011;12935;50.782;6.074;2024-03-07T05:44:32;104.93;;;89.60;;
24857;SDS011;12935;50.782;6.074;2024-03-07T05:46:57;104.07;;;87.77;;
24857;SDS011;12935;50.782;6.074;2024-03-07T05:49:23;122.83;;;91.93;;
24857;SDS011;12935;50.782;6.074;2024-03-07T05:51:48;102.87;;;88.13;;
24857;SDS011;12935;50.782;6.074;2024-03-07T05:54:13;99.17;;;87.77;;
24857;SDS011;12935;50.782;6.074;2024-03-07T05:56:39;95.00;;;84.53;;
24857;SDS011;12935;50.782;6.074;2024-03-07T05:59:05;96.40;;;85.97;;
24857;SDS011;12935;50.782;6.074;2024-03-07T06:01:35;102.35;;;89.30;;
24857;SDS011;12935;50.782;6.074;2024-03-07T06:04:01;96.80;;;86.10;;
24857;SDS011;12935;50.782;6.074;2024-03-07T06:06:27;93.40;;;83.30;;
24857;SDS011;12935;50.782;6.074;2024-03-07T06:08:56;92.60;;;83.03;;
24857;SDS011;12935;50.782;6.074;2024-03-07T06:11:21;94.30;;;84.30;;
24857;SDS011;12935;50.782;6.074;2024-03-07T06:13:47;95.70;;;85.43;;
24857;SDS011;12935;50.782;6.074;2024-03-07T06:16:13;99.05;;;86.10;;
24857;SDS011;12935;50.782;6.074;2024-03-07T06:18:40;103.63;;;92.70;;
24857;SDS011;12935;50.782;6.074;2024-03-07T06:21:06;97.95;;;87.32;;
24857;SDS011;12935;50.782;6.074;2024-03-07T06:23:31;94.27;;;84.43;;
24857;SDS011;12935;50.782;6.074;2024-03-07T06:25:57;107.77;;;93.20;;
24857;SDS011;12935;50.782;6.074;2024-03-07T06:28:24;98.53;;;85.13;;
24857;SDS011;12935;50.782;6.074;2024-03-07T06:30:50;96.67;;;86.20;;
24857;SDS011;12935;50.782;6.074;2024-03-07T06:33:15;111.37;;;91.13;;
24857;SDS011;12935;50.782;6.074;2024-03-07T06:35:45;104.53;;;89.43;;
24857;SDS011;12935;50.782;6.074;2024-03-07T06:38:10;96.07;;;85.87;;
24857;SDS011;12935;50.782;6.074;2024-03-07T06:40:36;107.73;;;91.13;;
24857;SDS011;12935;50.782;6.074;2024-03-07T06:43:03;92.93;;;83.20;;
24857;SDS011;12935;50.782;6.074;2024-03-07T06:45:29;95.57;;;85.57;;
24857;SDS011;12935;50.782;6.074;2024-03-07T06:47:56;105.75;;;87.70;;
24857;SDS011;12935;50.782;6.074;2024-03-07T06:50:21;122.57;;;90.30;;
24857;SDS011;12935;50.782;6.074;2024-03-07T06:52:47;109.40;;;91.40;;
24857;SDS011;12935;50.782;6.074;2024-03-07T06:55:15;120.77;;;94.77;;
24857;SDS011;12935;50.782;6.074;2024-03-07T06:57:44;109.20;;;91.07;;
24857;SDS011;12935;50.782;6.074;2024-03-07T07:00:11;100.53;;;88.80;;
24857;SDS011;12935;50.782;6.074;2024-03-07T07:02:40;94.35;;;84.78;;
24857;SDS011;12935;50.782;6.074;2024-03-07T07:05:09;99.65;;;88.32;;
24857;SDS011;12935;50.782;6.074;2024-03-07T07:07:43;98.82;;;87.97;;
24857;SDS011;12935;50.782;6.074;2024-03-07T07:10:08;114.22;;;94.72;;
24857;SDS011;12935;50.782;6.074;2024-03-07T07:12:50;113.07;;;90.55;;
24857;SDS011;12935;50.782;6.074;2024-03-07T07:15:17;117.85;;;92.07;;
24857;SDS011;12935;50.782;6.074;2024-03-07T07:17:44;98.72;;;87.88;;
24857;SDS011;12935;50.782;6.074;2024-03-07T07:20:14;104.53;;;87.65;;
24857;SDS011;12935;50.782;6.074;2024-03-07T07:22:43;108.78;;;87.88;;
24857;SDS011;12935;50.782;6.074;2024-03-07T07:25:15;114.45;;;93.32;;
24857;SDS011;12935;50.782;6.074;2024-03-07T07:27:42;98.25;;;87.35;;
24857;SDS011;12935;50.782;6.074;2024-03-07T07:30:10;103.07;;;89.35;;
24857;SDS011;12935;50.782;6.074;2024-03-07T07:32:36;101.40;;;88.72;;
24857;SDS011;12935;50.782;6.074;2024-03-07T07:35:02;96.97;;;86.30;;
24857;SDS011;12935;50.782;6.074;2024-03-07T07:37:28;113.80;;;93.40;;
24857;SDS011;12935;50.782;6.074;2024-03-07T07:39:53;96.63;;;86.40;;
24857;SDS011;12935;50.782;6.074;2024-03-07T07:42:18;96.27;;;85.87;;
24857;SDS011;12935;50.782;6.074;2024-03-07T07:44:44;110.80;;;93.33;;
24857;SDS011;12935;50.782;6.074;2024-03-07T07:47:10;117.90;;;89.97;;
24857;SDS011;12935;50.782;6.074;2024-03-07T07:49:38;133.70;;;96.28;;
24857;SDS011;12935;50.782;6.074;2024-03-07T07:52:04;131.27;;;96.87;;
24857;SDS011;12935;50.782;6.074;2024-03-07T07:54:30;133.02;;;99.13;;
24857;SDS011;12935;50.782;6.074;2024-03-07T07:56:55;112.70;;;92.40;;
24857;SDS011;12935;50.782;6.074;2024-03-07T07:59:20;149.00;;;99.13;;
24857;SDS011;12935;50.782;6.074;2024-03-07T08:01:46;124.03;;;94.77;;
24857;SDS011;12935;50.782;6.074;2024-03-07T08:04:11;114.20;;;92.67;;
24857;SDS011;12935;50.782;6.074;2024-03-07T08:06:36;117.67;;;91.87;;
24857;SDS011;12935;50.782;6.074;2024-03-07T08:09:01;132.17;;;96.40;;
24857;SDS011;12935;50.782;6.074;2024-03-07T08:11:27;123.20;;;94.50;;
24857;SDS011;12935;50.782;6.074;2024-03-07T08:13:52;133.50;;;99.40;;
24857;SDS011;12935;50.782;6.074;2024-03-07T08:16:17;107.30;;;89.00;;
24857;SDS011;12935;50.782;6.074;2024-03-07T08:18:42;110.30;;;91.97;;
24857;SDS011;12935;50.782;6.074;2024-03-07T08:21:08;106.23;;;90.93;;
24857;SDS011;12935;50.782;6.074;2024-03-07T08:23:36;110.43;;;92.10;;
24857;SDS011;12935;50.782;6.074;2024-03-07T08:26:01;108.47;;;89.90;;
24857;SDS011;12935;50.782;6.074;2024-03-07T08:28:27;109.90;;;90.47;;
24857;SDS011;12935;50.782;6.074;2024-03-07T08:30:52;97.00;;;86.60;;
24857;SDS011;12935;50.782;6.074;2024-03-07T08:33:18;106.68;;;92.95;;
24857;SDS011;12935;50.782;6.074;2024-03-07T08:35:46;102.60;;;88.60;;
24857;SDS011;12935;50.782;6.074;2024-03-07T08:38:12;104.63;;;93.33;;
24857;SDS011;12935;50.782;6.074;2024-03-07T08:40:37;96.80;;;86.10;;
24857;SDS011;12935;50.782;6.074;2024-03-07T08:43:02;108.30;;;90.77;;
24857;SDS011;12935;50.782;6.074;2024-03-07T08:45:28;106.77;;;87.53;;
24857;SDS011;12935;50.782;6.074;2024-03-07T08:47:55;103.25;;;89.65;;
24857;SDS011;12935;50.782;6.074;2024-03-07T08:50:22;118.00;;;96.57;;
24857;SDS011;12935;50.782;6.074;2024-03-07T08:52:49;105.57;;;91.13;;
24857;SDS011;12935;50.782;6.074;2024-03-07T08:55:15;110.03;;;90.60;;
24857;SDS011;12935;50.782;6.074;2024-03-07T08:57:41;107.03;;;89.95;;
24857;SDS011;12935;50.782;6.074;2024-03-07T09:00:09;121.00;;;96.00;;
24857;SDS011;12935;50.782;6.074;2024-03-07T09:02:39;113.72;;;93.93;;
24857;SDS011;12935;50.782;6.074;2024-03-07T09:05:05;111.32;;;92.57;;
24857;SDS011;12935;50.782;6.074;2024-03-07T09:07:31;114.57;;;93.27;;
24857;SDS011;12935;50.782;6.074;2024-03-07T09:09:57;116.40;;;92.67;;
24857;SDS011;12935;50.782;6.074;2024-03-07T09:12:23;120.63;;;94.40;;
24857;SDS011;12935;50.782;6.074;2024-03-07T09:14:50;121.43;;;94.73;;
24857;SDS011;12935;50.782;6.074;2024-03-07T09:17:19;111.70;;;94.93;;
24857;SDS011;12935;50.782;6.074;2024-03-07T09:19:45;118.53;;;97.27;;
24857;SDS011;12935;50.782;6.074;2024-03-07T09:22:10;106.20;;;90.37;;
24857;SDS011;12935;50.782;6.074;2024-03-07T09:24:36;106.73;;;90.03;;
24857;SDS011;12935;50.782;6.074;2024-03-07T09:27:02;106.40;;;93.40;;
24857;SDS011;12935;50.782;6.074;2024-03-07T09:29:28;139.10;;;99.10;;
24857;SDS011;12935;50.782;6.074;2024-03-07T09:31:53;108.40;;;96.60;;
24857;SDS011;12935;50.782;6.074;2024-03-07T09:34:19;103.43;;;90.90;;
24857;SDS011;12935;50.782;6.074;2024-03-07T09:36:46;114.25;;;93.18;;
24857;SDS011;12935;50.782;6.074;2024-03-07T09:39:12;127.57;;;95.30;;
24857;SDS011;12935;50.782;6.074;2024-03-07T09:41:40;99.57;;;88.13;;
24857;SDS011;12935;50.782;6.074;2024-03-07T09:44:05;100.27;;;88.70;;
24857;SDS011;12935;50.782;6.074;2024-03-07T09:46:34;112.30;;;92.40;;
24857;SDS011;12935;50.782;6.074;2024-03-07T09:49:01;106.07;;;91.47;;
24857;SDS011;12935;50.782;6.074;2024-03-07T09:51:26;107.97;;;91.00;;
24857;SDS011;12935;50.782;6.074;2024-03-07T09:53:53;117.83;;;95.40;;
24857;SDS011;12935;50.782;6.074;2024-03-07T09:56:22;119.03;;;96.77;;
24857;SDS011;12935;50.782;6.074;2024-03-07T09:58:48;101.33;;;90.10;;
24857;SDS011;12935;50.782;6.074;2024-03-07T10:01:15;133.70;;;100.10;;
24857;SDS011;12935;50.782;6.074;2024-03-07T10:03:43;121.50;;;94.90;;
24857;SDS011;12935;50.782;6.074;2024-03-07T10:06:10;104.18;;;90.57;;
24857;SDS011;12935;50.782;6.074;2024-03-07T10:08:35;117.53;;;94.07;;
24857;SDS011;12935;50.782;6.074;2024-03-07T10:11:01;115.03;;;93.47;;
24857;SDS011;12935;50.782;6.074;2024-03-07T10:13:27;117.70;;;94.90;;
24857;SDS011;12935;50.782;6.074;2024-03-07T10:15:53;120.97;;;93.67;;
24857;SDS011;12935;50.782;6.074;2024-03-07T10:18:24;118.37;;;96.33;;
24857;SDS011;12935;50.782;6.074;2024-03-07T10:20:53;114.30;;;93.17;;
24857;SDS011;12935;50.782;6.074;2024-03-07T10:23:19;112.33;;;94.27;;
24857;SDS011;12935;50.782;6.074;2024-03-07T10:25:46;123.03;;;96.40;;
24857;SDS011;12935;50.782;6.074;2024-03-07T10:28:12;130.00;;;96.40;;
24857;SDS011;12935;50.782;6.074;2024-03-07T10:30:40;118.40;;;93.13;;
24857;SDS011;12935;50.782;6.074;2024-03-07T10:33:06;123.00;;;96.03;;
24857;SDS011;12935;50.782;6.074;2024-03-07T10:35:32;109.63;;;93.30;;
24857;SDS011;12935;50.782;6.074;2024-03-07T10:37:58;125.77;;;99.53;;
24857;SDS011;12935;50.782;6.074;2024-03-07T10:40:25;129.90;;;99.83;;
24857;SDS011;12935;50.782;6.074;2024-03-07T10:42:53;110.60;;;95.47;;
24857;SDS011;12935;50.782;6.074;2024-03-07T10:45:21;130.73;;;99.50;;
24857;SDS011;12935;50.782;6.074;2024-03-07T10:47:53;146.23;;;102.00;;
24857;SDS011;12935;50.782;6.074;2024-03-07T10:50:26;122.50;;;97.37;;
24857;SDS011;12935;50.782;6.074;2024-03-07T10:58:11;121.87;;;97.30;;
24857;SDS011;12935;50.782;6.074;2024-03-07T11:00:45;124.33;;;99.40;;
24857;SDS011;12935;50.782;6.074;2024-03-07T11:03:12;127.73;;;97.10;;
24857;SDS011;12935;50.782;6.074;2024-03-07T11:05:39;118.40;;;96.43;;
24857;SDS011;12935;50.782;6.074;2024-03-07T11:08:04;132.23;;;95.60;;
24857;SDS011;12935;50.782;6.074;2024-03-07T11:10:36;137.67;;;101.80;;
24857;SDS011;12935;50.782;6.074;2024-03-07T11:13:03;121.67;;;96.27;;
24857;SDS011;12935;50.782;6.074;2024-03-07T11:15:29;138.70;;;98.80;;
24857;SDS011;12935;50.782;6.074;2024-03-07T11:17:56;108.63;;;92.70;;
24857;SDS011;12935;50.782;6.074;2024-03-07T11:20:25;123.70;;;98.40;;
24857;SDS011;12935;50.782;6.074;2024-03-07T11:22:51;127.07;;;97.23;;
24857;SDS011;12935;50.782;6.074;2024-03-07T11:25:21;126.80;;;96.47;;
24857;SDS011;12935;50.782;6.074;2024-03-07T11:28:00;128.13;;;97.93;;
24857;SDS011;12935;50.782;6.074;2024-03-07T11:30:26;114.60;;;94.57;;
24857;SDS011;12935;50.782;6.074;2024-03-07T11:32:52;126.00;;;95.13;;
24857;SDS011;12935;50.782;6.074;2024-03-07T11:35:19;121.07;;;95.73;;
24857;SDS011;12935;50.782;6.074;2024-03-07T11:37:56;111.27;;;92.47;;
24857;SDS011;12935;50.782;6.074;2024-03-07T11:42:49;119.47;;;95.80;;
24857;SDS011;12935;50.782;6.074;2024-03-07T11:45:16;138.87;;;103.97;;
24857;SDS011;12935;50.782;6.074;2024-03-07T11:47:53;111.87;;;94.03;;
24857;SDS011;12935;50.782;6.074;2024-03-07T11:50:47;120.83;;;96.93;;
24857;SDS011;12935;50.782;6.074;2024-03-07T11:53:13;125.70;;;98.83;;
24857;SDS011;12935;50.782;6.074;2024-03-07T11:55:39;149.00;;;100.27;;
24857;SDS011;12935;50.782;6.074;2024-03-07T11:58:19;128.60;;;97.87;;
24857;SDS011;12935;50.782;6.074;2024-03-07T12:00:49;135.07;;;99.63;;
24857;SDS011;12935;50.782;6.074;2024-03-07T12:03:16;133.93;;;99.17;;
24857;SDS011;12935;50.782;6.074;2024-03-07T12:05:46;129.97;;;99.87;;
24857;SDS011;12935;50.782;6.074;2024-03-07T12:08:11;133.73;;;100.13;;
24857;SDS011;12935;50.782;6.074;2024-03-07T12:10:37;149.77;;;105.57;;
24857;SDS011;12935;50.782;6.074;2024-03-07T12:13:04;145.93;;;105.03;;
24857;SDS011;12935;50.782;6.074;2024-03-07T12:15:30;134.70;;;100.40;;
24857;SDS011;12935;50.782;6.074;2024-03-07T12:17:57;141.80;;;103.00;;
24857;SDS011;12935;50.782;6.074;2024-03-07T12:20:22;129.70;;;101.53;;
24857;SDS011;12935;50.782;6.074;2024-03-07T12:22:58;127.80;;;100.43;;
24857;SDS011;12935;50.782;6.074;2024-03-07T12:25:27;127.03;;;97.27;;
24857;SDS011;12935;50.782;6.074;2024-03-07T12:27:59;127.70;;;98.20;;
24857;SDS011;12935;50.782;6.074;2024-03-07T12:30:28;135.40;;;103.23;;
24857;SDS011;12935;50.782;6.074;2024-03-07T12:32:57;144.80;;;105.00;;
24857;SDS011;12935;50.782;6.074;2024-03-07T12:35:23;167.60;;;110.53;;
24857;SDS011;12935;50.782;6.074;2024-03-07T12:37:48;149.13;;;104.50;;
24857;SDS011;12935;50.782;6.074;2024-03-07T12:40:14;143.30;;;102.50;;
24857;SDS011;12935;50.782;6.074;2024-03-07T12:42:46;151.13;;;105.03;;
24857;SDS011;12935;50.782;6.074;2024-03-07T12:45:12;145.53;;;101.40;;
24857;SDS011;12935;50.782;6.074;2024-03-07T12:47:42;149.60;;;106.70;;
24857;SDS011;12935;50.782;6.074;2024-03-07T12:50:08;132.67;;;100.63;;
24857;SDS011;12935;50.782;6.074;2024-03-07T12:52:34;136.23;;;104.93;;
24857;SDS011;12935;50.782;6.074;2024-03-07T12:54:59;143.50;;;103.53;;
24857;SDS011;12935;50.782;6.074;2024-03-07T12:57:24;130.97;;;99.47;;
24857;SDS011;12935;50.782;6.074;2024-03-07T12:59:50;138.63;;;102.80;;
24857;SDS011;12935;50.782;6.074;2024-03-07T13:02:15;124.60;;;94.30;;
24857;SDS011;12935;50.782;6.074;2024-03-07T13:04:41;141.67;;;98.33;;
24857;SDS011;12935;50.782;6.074;2024-03-07T13:07:07;138.53;;;100.43;;
24857;SDS011;12935;50.782;6.074;2024-03-07T13:09:36;141.87;;;102.17;;
24857;SDS011;12935;50.782;6.074;2024-03-07T13:12:03;125.50;;;94.60;;
24857;SDS011;12935;50.782;6.074;2024-03-07T13:14:34;133.87;;;96.27;;
24857;SDS011;12935;50.782;6.074;2024-03-07T13:17:00;143.67;;;100.70;;
24857;SDS011;12935;50.782;6.074;2024-03-07T13:19:29;158.20;;;101.67;;
24857;SDS011;12935;50.782;6.074;2024-03-07T13:21:55;132.50;;;93.93;;
24857;SDS011;12935;50.782;6.074;2024-03-07T13:24:21;149.03;;;98.40;;
24857;SDS011;12935;50.782;6.074;2024-03-07T13:26:48;142.63;;;99.17;;
24857;SDS011;12935;50.782;6.074;2024-03-07T13:29:13;145.77;;;100.57;;
24857;SDS011;12935;50.782;6.074;2024-03-07T13:31:39;155.30;;;95.40;;
24857;SDS011;12935;50.782;6.074;2024-03-07T13:34:07;124.37;;;92.33;;
24857;SDS011;12935;50.782;6.074;2024-03-07T13:36:38;149.37;;;100.20;;
24857;SDS011;12935;50.782;6.074;2024-03-07T13:39:08;129.10;;;95.13;;
24857;SDS011;12935;50.782;6.074;2024-03-07T13:41:42;136.43;;;97.13;;
24857;SDS011;12935;50.782;6.074;2024-03-07T13:44:13;166.33;;;100.57;;
24857;SDS011;12935;50.782;6.074;2024-03-07T13:46:39;134.40;;;95.13;;
24857;SDS011;12935;50.782;6.074;2024-03-07T13:49:04;130.47;;;94.87;;
24857;SDS011;12935;50.782;6.074;2024-03-07T13:51:37;128.67;;;89.83;;
24857;SDS011;12935;50.782;6.074;2024-03-07T13:54:18;130.40;;;91.00;;
24857;SDS011;12935;50.782;6.074;2024-03-07T13:57:13;139.40;;;92.90;;
24857;SDS011;12935;50.782;6.074;2024-03-07T14:05:26;95.43;;;76.33;;
24857;SDS011;12935;50.782;6.074;2024-03-07T14:10:58;131.10;;;89.03;;
24857;SDS011;12935;50.782;6.074;2024-03-07T14:31:30;102.87;;;80.60;;
24857;SDS011;12935;50.782;6.074;2024-03-07T14:36:23;110.67;;;76.50;;
24857;SDS011;12935;50.782;6.074;2024-03-07T14:39:01;114.80;;;78.20;;
24857;SDS011;12935;50.782;6.074;2024-03-07T14:41:42;108.40;;;77.60;;
24857;SDS011;12935;50.782;6.074;2024-03-07T14:44:14;116.73;;;79.70;;
24857;SDS011;12935;50.782;6.074;2024-03-07T14:46:41;136.87;;;84.23;;
24857;SDS011;12935;50.782;6.074;2024-03-07T14:49:07;120.07;;;81.57;;